sensor_id;sensor_type;location;lat;lon;timestamp;P1;durP1;ratioP1;P2;durP2;ratioP2
76566;SDS011;65428;53.194;6.132;2023-03-05T00:01:32;12.68;;;4.13;;
76566;SDS011;65428;53.194;6.132;2023-03-05T00:03:59;10.77;;;2.60;;
76566;SDS011;65428;53.194;6.132;2023-03-05T00:06:26;11.25;;;2.83;;
76566;SDS011;65428;53.194;6.132;2023-03-05T00:08:53;11.13;;;2.70;;
76566;SDS011;65428;53.194;6.132;2023-03-05T00:11:21;10.60;;;2.30;;
76566;SDS011;65428;53.194;6.132;2023-03-05T00:13:47;8.75;;;1.33;;
76566;SDS011;65428;53.194;6.132;2023-03-05T00:16:16;9.07;;;1.20;;
76566;SDS011;65428;53.194;6.132;2023-03-05T00:18:42;9.35;;;1.00;;
76566;SDS011;65428;53.194;6.132;2023-03-05T00:21:19;6.20;;;0.80;;
76566;SDS011;65428;53.194;6.132;2023-03-05T00:23:50;9.68;;;1.50;;
76566;SDS011;65428;53.194;6.132;2023-03-05T00:26:21;9.00;;;1.38;;
76566;SDS011;65428;53.194;6.132;2023-03-05T00:28:48;13.00;;;1.60;;
76566;SDS011;65428;53.194;6.132;2023-03-05T00:31:20;10.18;;;1.95;;
76566;SDS011;65428;53.194;6.132;2023-03-05T00:34:00;9.98;;;1.40;;
76566;SDS011;65428;53.194;6.132;2023-03-05T00:36:27;10.83;;;1.17;;
76566;SDS011;65428;53.194;6.132;2023-03-05T00:38:53;7.57;;;1.15;;
76566;SDS011;65428;53.194;6.132;2023-03-05T00:41:19;12.30;;;1.30;;
76566;SDS011;65428;53.194;6.132;2023-03-05T00:43:45;11.60;;;1.30;;
76566;SDS011;65428;53.194;6.132;2023-03-05T00:46:11;7.72;;;1.00;;
76566;SDS011;65428;53.194;6.132;2023-03-05T00:48:37;9.30;;;1.60;;
76566;SDS011;65428;53.194;6.132;2023-03-05T00:51:02;10.27;;;1.53;;
76566;SDS011;65428;53.194;6.132;2023-03-05T00:53:28;12.60;;;2.70;;
76566;SDS011;65428;53.194;6.132;2023-03-05T00:55:54;10.93;;;3.58;;
76566;SDS011;65428;53.194;6.132;2023-03-05T00:58:20;11.63;;;1.10;;
76566;SDS011;65428;53.194;6.132;2023-03-05T01:00:45;9.97;;;1.00;;
76566;SDS011;65428;53.194;6.132;2023-03-05T01:03:14;10.23;;;0.90;;
76566;SDS011;65428;53.194;6.132;2023-03-05T01:05:43;9.57;;;1.00;;
76566;SDS011;65428;53.194;6.132;2023-03-05T01:08:09;9.77;;;1.10;;
76566;SDS011;65428;53.194;6.132;2023-03-05T01:10:35;11.63;;;1.40;;
76566;SDS011;65428;53.194;6.132;2023-03-05T01:13:01;9.80;;;1.20;;
76566;SDS011;65428;53.194;6.132;2023-03-05T01:15:26;8.23;;;1.20;;
76566;SDS011;65428;53.194;6.132;2023-03-05T01:17:52;10.68;;;1.00;;
76566;SDS011;65428;53.194;6.132;2023-03-05T01:20:18;9.23;;;1.38;;
76566;SDS011;65428;53.194;6.132;2023-03-05T01:22:45;12.70;;;3.00;;
76566;SDS011;65428;53.194;6.132;2023-03-05T01:25:12;11.43;;;3.27;;
76566;SDS011;65428;53.194;6.132;2023-03-05T01:27:38;11.37;;;3.77;;
76566;SDS011;65428;53.194;6.132;2023-03-05T01:30:04;11.83;;;3.87;;
76566;SDS011;65428;53.194;6.132;2023-03-05T01:32:32;12.05;;;3.85;;
76566;SDS011;65428;53.194;6.132;2023-03-05T01:34:59;10.50;;;3.40;;
76566;SDS011;65428;53.194;6.132;2023-03-05T01:37:25;12.95;;;3.35;;
76566;SDS011;65428;53.194;6.132;2023-03-05T01:39:51;11.70;;;2.95;;
76566;SDS011;65428;53.194;6.132;2023-03-05T01:42:16;14.75;;;3.15;;
76566;SDS011;65428;53.194;6.132;2023-03-05T01:47:32;10.45;;;2.47;;
76566;SDS011;65428;53.194;6.132;2023-03-05T01:49:57;11.02;;;2.65;;
76566;SDS011;65428;53.194;6.132;2023-03-05T01:52:24;11.48;;;2.20;;
76566;SDS011;65428;53.194;6.132;2023-03-05T01:57:32;10.07;;;1.98;;
76566;SDS011;65428;53.194;6.132;2023-03-05T02:00:09;10.43;;;1.80;;
76566;SDS011;65428;53.194;6.132;2023-03-05T02:02:43;9.85;;;1.60;;
76566;SDS011;65428;53.194;6.132;2023-03-05T02:05:25;9.77;;;2.30;;
76566;SDS011;65428;53.194;6.132;2023-03-05T02:07:54;12.77;;;2.28;;
76566;SDS011;65428;53.194;6.132;2023-03-05T02:10:24;12.02;;;1.90;;
76566;SDS011;65428;53.194;6.132;2023-03-05T02:12:51;9.98;;;1.35;;
76566;SDS011;65428;53.194;6.132;2023-03-05T02:15:20;8.10;;;1.40;;
76566;SDS011;65428;53.194;6.132;2023-03-05T02:17:46;9.60;;;1.45;;
76566;SDS011;65428;53.194;6.132;2023-03-05T02:20:14;8.60;;;1.10;;
76566;SDS011;65428;53.194;6.132;2023-03-05T02:22:42;9.13;;;1.33;;
76566;SDS011;65428;53.194;6.132;2023-03-05T02:25:26;11.10;;;1.70;;
76566;SDS011;65428;53.194;6.132;2023-03-05T02:27:58;9.05;;;1.17;;
76566;SDS011;65428;53.194;6.132;2023-03-05T02:30:28;9.90;;;1.50;;
76566;SDS011;65428;53.194;6.132;2023-03-05T02:32:55;10.85;;;1.98;;
76566;SDS011;65428;53.194;6.132;2023-03-05T02:35:22;16.33;;;3.75;;
76566;SDS011;65428;53.194;6.132;2023-03-05T02:37:48;12.82;;;2.10;;
76566;SDS011;65428;53.194;6.132;2023-03-05T02:40:14;9.15;;;1.50;;
76566;SDS011;65428;53.194;6.132;2023-03-05T02:42:40;7.27;;;0.80;;
76566;SDS011;65428;53.194;6.132;2023-03-05T02:45:06;5.90;;;0.60;;
76566;SDS011;65428;53.194;6.132;2023-03-05T02:47:33;7.90;;;0.80;;
76566;SDS011;65428;53.194;6.132;2023-03-05T02:49:59;8.75;;;0.95;;
76566;SDS011;65428;53.194;6.132;2023-03-05T02:52:25;8.02;;;0.98;;
76566;SDS011;65428;53.194;6.132;2023-03-05T02:54:51;9.63;;;1.90;;
76566;SDS011;65428;53.194;6.132;2023-03-05T02:57:17;8.43;;;0.60;;
76566;SDS011;65428;53.194;6.132;2023-03-05T02:59:44;7.85;;;0.60;;
76566;SDS011;65428;53.194;6.132;2023-03-05T03:02:10;5.28;;;0.65;;
76566;SDS011;65428;53.194;6.132;2023-03-05T03:04:36;6.35;;;0.75;;
76566;SDS011;65428;53.194;6.132;2023-03-05T03:07:01;7.88;;;1.00;;
76566;SDS011;65428;53.194;6.132;2023-03-05T03:09:27;8.97;;;1.53;;
76566;SDS011;65428;53.194;6.132;2023-03-05T03:11:53;8.97;;;1.23;;
76566;SDS011;65428;53.194;6.132;2023-03-05T03:14:19;9.73;;;2.30;;
76566;SDS011;65428;53.194;6.132;2023-03-05T03:16:45;8.13;;;2.75;;
76566;SDS011;65428;53.194;6.132;2023-03-05T03:19:10;8.70;;;1.30;;
76566;SDS011;65428;53.194;6.132;2023-03-05T03:21:36;6.13;;;1.20;;
76566;SDS011;65428;53.194;6.132;2023-03-05T03:24:02;6.20;;;1.35;;
76566;SDS011;65428;53.194;6.132;2023-03-05T03:26:28;6.75;;;1.00;;
76566;SDS011;65428;53.194;6.132;2023-03-05T03:28:54;5.13;;;1.10;;
76566;SDS011;65428;53.194;6.132;2023-03-05T03:31:20;7.75;;;0.80;;
76566;SDS011;65428;53.194;6.132;2023-03-05T03:33:46;8.77;;;0.75;;
76566;SDS011;65428;53.194;6.132;2023-03-05T03:36:12;5.70;;;0.80;;
76566;SDS011;65428;53.194;6.132;2023-03-05T03:38:38;7.88;;;0.60;;
76566;SDS011;65428;53.194;6.132;2023-03-05T03:41:04;7.07;;;0.57;;
76566;SDS011;65428;53.194;6.132;2023-03-05T03:43:32;6.63;;;0.60;;
76566;SDS011;65428;53.194;6.132;2023-03-05T03:45:58;5.65;;;0.50;;
76566;SDS011;65428;53.194;6.132;2023-03-05T03:48:24;5.40;;;0.50;;
76566;SDS011;65428;53.194;6.132;2023-03-05T03:50:50;5.37;;;0.43;;
76566;SDS011;65428;53.194;6.132;2023-03-05T03:53:15;4.43;;;0.27;;
76566;SDS011;65428;53.194;6.132;2023-03-05T03:55:41;4.97;;;0.40;;
76566;SDS011;65428;53.194;6.132;2023-03-05T03:58:09;9.10;;;0.70;;
76566;SDS011;65428;53.194;6.132;2023-03-05T04:00:34;7.97;;;0.50;;
76566;SDS011;65428;53.194;6.132;2023-03-05T04:03:00;6.53;;;0.50;;
76566;SDS011;65428;53.194;6.132;2023-03-05T04:05:26;6.17;;;0.50;;
76566;SDS011;65428;53.194;6.132;2023-03-05T04:07:51;6.93;;;0.50;;
76566;SDS011;65428;53.194;6.132;2023-03-05T04:10:17;7.00;;;0.50;;
76566;SDS011;65428;53.194;6.132;2023-03-05T04:12:43;7.10;;;0.60;;
76566;SDS011;65428;53.194;6.132;2023-03-05T04:15:10;5.05;;;0.50;;
76566;SDS011;65428;53.194;6.132;2023-03-05T04:17:36;8.52;;;0.68;;
76566;SDS011;65428;53.194;6.132;2023-03-05T04:20:02;5.67;;;0.30;;
76566;SDS011;65428;53.194;6.132;2023-03-05T04:22:29;6.60;;;0.60;;
76566;SDS011;65428;53.194;6.132;2023-03-05T04:24:55;6.83;;;0.73;;
76566;SDS011;65428;53.194;6.132;2023-03-05T04:27:21;6.45;;;0.98;;
76566;SDS011;65428;53.194;6.132;2023-03-05T04:29:46;5.93;;;1.02;;
76566;SDS011;65428;53.194;6.132;2023-03-05T04:32:12;7.30;;;1.40;;
76566;SDS011;65428;53.194;6.132;2023-03-05T04:34:37;7.70;;;1.10;;
76566;SDS011;65428;53.194;6.132;2023-03-05T04:37:03;9.77;;;0.90;;
76566;SDS011;65428;53.194;6.132;2023-03-05T04:39:29;7.72;;;1.10;;
76566;SDS011;65428;53.194;6.132;2023-03-05T04:41:54;6.03;;;0.80;;
76566;SDS011;65428;53.194;6.132;2023-03-05T04:44:20;8.20;;;0.80;;
76566;SDS011;65428;53.194;6.132;2023-03-05T04:46:47;8.32;;;0.80;;
76566;SDS011;65428;53.194;6.132;2023-03-05T04:49:13;8.38;;;0.70;;
76566;SDS011;65428;53.194;6.132;2023-03-05T04:51:39;8.05;;;0.93;;
76566;SDS011;65428;53.194;6.132;2023-03-05T04:54:05;7.07;;;0.77;;
76566;SDS011;65428;53.194;6.132;2023-03-05T04:56:31;7.77;;;0.60;;
76566;SDS011;65428;53.194;6.132;2023-03-05T04:58:57;10.90;;;0.55;;
76566;SDS011;65428;53.194;6.132;2023-03-05T05:01:23;7.27;;;0.40;;
76566;SDS011;65428;53.194;6.132;2023-03-05T05:03:48;7.50;;;0.60;;
76566;SDS011;65428;53.194;6.132;2023-03-05T05:06:14;7.05;;;0.60;;
76566;SDS011;65428;53.194;6.132;2023-03-05T05:08:40;7.55;;;0.60;;
76566;SDS011;65428;53.194;6.132;2023-03-05T05:11:06;9.13;;;0.50;;
76566;SDS011;65428;53.194;6.132;2023-03-05T05:13:32;9.33;;;0.70;;
76566;SDS011;65428;53.194;6.132;2023-03-05T05:15:59;6.68;;;0.60;;
76566;SDS011;65428;53.194;6.132;2023-03-05T05:18:24;6.78;;;0.52;;
76566;SDS011;65428;53.194;6.132;2023-03-05T05:20:50;9.75;;;0.80;;
76566;SDS011;65428;53.194;6.132;2023-03-05T05:23:16;6.85;;;0.75;;
76566;SDS011;65428;53.194;6.132;2023-03-05T05:25:41;8.73;;;0.90;;
76566;SDS011;65428;53.194;6.132;2023-03-05T05:28:07;9.20;;;0.77;;
76566;SDS011;65428;53.194;6.132;2023-03-05T05:30:34;8.15;;;0.95;;
76566;SDS011;65428;53.194;6.132;2023-03-05T05:32:59;7.88;;;0.60;;
76566;SDS011;65428;53.194;6.132;2023-03-05T05:35:25;7.95;;;1.00;;
76566;SDS011;65428;53.194;6.132;2023-03-05T05:37:51;9.57;;;0.80;;
76566;SDS011;65428;53.194;6.132;2023-03-05T05:40:16;9.27;;;0.87;;
76566;SDS011;65428;53.194;6.132;2023-03-05T05:42:42;11.90;;;1.13;;
76566;SDS011;65428;53.194;6.132;2023-03-05T05:45:09;9.40;;;1.25;;
76566;SDS011;65428;53.194;6.132;2023-03-05T05:47:35;10.60;;;1.10;;
76566;SDS011;65428;53.194;6.132;2023-03-05T05:50:01;9.53;;;1.00;;
76566;SDS011;65428;53.194;6.132;2023-03-05T05:52:27;8.73;;;0.75;;
76566;SDS011;65428;53.194;6.132;2023-03-05T05:54:53;8.93;;;0.88;;
76566;SDS011;65428;53.194;6.132;2023-03-05T05:57:18;11.53;;;1.10;;
76566;SDS011;65428;53.194;6.132;2023-03-05T05:59:44;10.47;;;1.10;;
76566;SDS011;65428;53.194;6.132;2023-03-05T06:02:10;11.07;;;1.48;;
76566;SDS011;65428;53.194;6.132;2023-03-05T06:04:35;11.57;;;1.20;;
76566;SDS011;65428;53.194;6.132;2023-03-05T06:07:01;10.70;;;1.00;;
76566;SDS011;65428;53.194;6.132;2023-03-05T06:09:28;11.07;;;1.27;;
76566;SDS011;65428;53.194;6.132;2023-03-05T06:11:53;11.95;;;1.38;;
76566;SDS011;65428;53.194;6.132;2023-03-05T06:14:19;11.73;;;1.40;;
76566;SDS011;65428;53.194;6.132;2023-03-05T06:16:45;11.45;;;1.42;;
76566;SDS011;65428;53.194;6.132;2023-03-05T06:19:11;10.82;;;1.15;;
76566;SDS011;65428;53.194;6.132;2023-03-05T06:21:37;10.85;;;1.17;;
76566;SDS011;65428;53.194;6.132;2023-03-05T06:24:03;9.32;;;1.40;;
76566;SDS011;65428;53.194;6.132;2023-03-05T06:26:29;13.13;;;1.40;;
76566;SDS011;65428;53.194;6.132;2023-03-05T06:28:55;7.60;;;1.10;;
76566;SDS011;65428;53.194;6.132;2023-03-05T06:31:22;9.20;;;1.38;;
76566;SDS011;65428;53.194;6.132;2023-03-05T06:33:50;9.93;;;1.20;;
76566;SDS011;65428;53.194;6.132;2023-03-05T06:36:17;10.27;;;1.13;;
76566;SDS011;65428;53.194;6.132;2023-03-05T06:38:44;13.20;;;1.20;;
76566;SDS011;65428;53.194;6.132;2023-03-05T06:41:11;14.38;;;1.63;;
76566;SDS011;65428;53.194;6.132;2023-03-05T06:43:40;12.63;;;1.35;;
76566;SDS011;65428;53.194;6.132;2023-03-05T06:46:09;8.10;;;1.05;;
76566;SDS011;65428;53.194;6.132;2023-03-05T06:48:38;12.73;;;1.13;;
76566;SDS011;65428;53.194;6.132;2023-03-05T06:51:04;10.55;;;1.30;;
76566;SDS011;65428;53.194;6.132;2023-03-05T06:53:30;8.25;;;0.90;;
76566;SDS011;65428;53.194;6.132;2023-03-05T06:55:56;8.48;;;1.13;;
76566;SDS011;65428;53.194;6.132;2023-03-05T06:58:24;12.13;;;1.30;;
76566;SDS011;65428;53.194;6.132;2023-03-05T07:00:50;13.57;;;1.17;;
76566;SDS011;65428;53.194;6.132;2023-03-05T07:03:15;8.00;;;0.93;;
76566;SDS011;65428;53.194;6.132;2023-03-05T07:05:41;8.30;;;1.00;;
76566;SDS011;65428;53.194;6.132;2023-03-05T07:08:07;7.97;;;0.80;;
76566;SDS011;65428;53.194;6.132;2023-03-05T07:10:40;8.48;;;0.70;;
76566;SDS011;65428;53.194;6.132;2023-03-05T07:13:07;8.48;;;0.77;;
76566;SDS011;65428;53.194;6.132;2023-03-05T07:15:36;6.75;;;0.70;;
76566;SDS011;65428;53.194;6.132;2023-03-05T07:18:02;9.43;;;0.70;;
76566;SDS011;65428;53.194;6.132;2023-03-05T07:20:28;8.77;;;1.00;;
76566;SDS011;65428;53.194;6.132;2023-03-05T07:22:54;9.50;;;0.90;;
76566;SDS011;65428;53.194;6.132;2023-03-05T07:25:19;6.53;;;0.80;;
76566;SDS011;65428;53.194;6.132;2023-03-05T07:27:46;8.32;;;0.63;;
76566;SDS011;65428;53.194;6.132;2023-03-05T07:30:12;12.03;;;0.67;;
76566;SDS011;65428;53.194;6.132;2023-03-05T07:32:38;10.00;;;0.50;;
76566;SDS011;65428;53.194;6.132;2023-03-05T07:35:04;9.55;;;0.68;;
76566;SDS011;65428;53.194;6.132;2023-03-05T07:37:30;7.45;;;0.75;;
76566;SDS011;65428;53.194;6.132;2023-03-05T07:39:55;7.50;;;0.50;;
76566;SDS011;65428;53.194;6.132;2023-03-05T07:42:21;13.10;;;0.70;;
76566;SDS011;65428;53.194;6.132;2023-03-05T07:44:47;8.30;;;0.50;;
76566;SDS011;65428;53.194;6.132;2023-03-05T07:47:13;7.30;;;0.60;;
76566;SDS011;65428;53.194;6.132;2023-03-05T07:49:39;7.90;;;0.60;;
76566;SDS011;65428;53.194;6.132;2023-03-05T07:52:06;9.30;;;0.70;;
76566;SDS011;65428;53.194;6.132;2023-03-05T07:54:32;6.22;;;0.43;;
76566;SDS011;65428;53.194;6.132;2023-03-05T07:57:02;6.82;;;0.63;;
76566;SDS011;65428;53.194;6.132;2023-03-05T07:59:28;6.82;;;0.68;;
76566;SDS011;65428;53.194;6.132;2023-03-05T08:01:54;8.32;;;0.73;;
76566;SDS011;65428;53.194;6.132;2023-03-05T08:04:20;6.43;;;0.57;;
76566;SDS011;65428;53.194;6.132;2023-03-05T08:06:46;6.18;;;0.60;;
76566;SDS011;65428;53.194;6.132;2023-03-05T08:09:14;10.55;;;1.20;;
76566;SDS011;65428;53.194;6.132;2023-03-05T08:11:40;8.05;;;0.80;;
76566;SDS011;65428;53.194;6.132;2023-03-05T08:14:06;9.48;;;0.90;;
76566;SDS011;65428;53.194;6.132;2023-03-05T08:16:31;7.40;;;0.65;;
76566;SDS011;65428;53.194;6.132;2023-03-05T08:18:57;9.63;;;0.77;;
76566;SDS011;65428;53.194;6.132;2023-03-05T08:21:27;8.98;;;0.85;;
76566;SDS011;65428;53.194;6.132;2023-03-05T08:23:57;9.13;;;0.82;;
76566;SDS011;65428;53.194;6.132;2023-03-05T08:26:25;7.18;;;0.60;;
76566;SDS011;65428;53.194;6.132;2023-03-05T08:28:52;8.30;;;0.85;;
76566;SDS011;65428;53.194;6.132;2023-03-05T08:31:18;8.38;;;0.73;;
76566;SDS011;65428;53.194;6.132;2023-03-05T08:33:46;8.75;;;0.85;;
76566;SDS011;65428;53.194;6.132;2023-03-05T08:36:12;6.68;;;0.70;;
76566;SDS011;65428;53.194;6.132;2023-03-05T08:38:38;8.35;;;1.13;;
76566;SDS011;65428;53.194;6.132;2023-03-05T08:41:04;8.57;;;0.60;;
76566;SDS011;65428;53.194;6.132;2023-03-05T08:43:30;7.72;;;1.10;;
76566;SDS011;65428;53.194;6.132;2023-03-05T08:45:56;6.38;;;0.60;;
76566;SDS011;65428;53.194;6.132;2023-03-05T08:48:23;9.07;;;1.83;;
76566;SDS011;65428;53.194;6.132;2023-03-05T08:50:48;6.43;;;0.60;;
76566;SDS011;65428;53.194;6.132;2023-03-05T08:53:14;9.10;;;0.93;;
76566;SDS011;65428;53.194;6.132;2023-03-05T08:55:40;6.67;;;0.53;;
76566;SDS011;65428;53.194;6.132;2023-03-05T08:58:05;8.60;;;0.90;;
76566;SDS011;65428;53.194;6.132;2023-03-05T09:00:31;6.57;;;0.65;;
76566;SDS011;65428;53.194;6.132;2023-03-05T09:02:57;9.70;;;0.80;;
76566;SDS011;65428;53.194;6.132;2023-03-05T09:05:22;6.03;;;0.40;;
76566;SDS011;65428;53.194;6.132;2023-03-05T09:07:48;6.13;;;0.83;;
76566;SDS011;65428;53.194;6.132;2023-03-05T09:10:13;6.22;;;0.45;;
76566;SDS011;65428;53.194;6.132;2023-03-05T09:12:40;5.72;;;0.60;;
76566;SDS011;65428;53.194;6.132;2023-03-05T09:15:06;5.75;;;0.40;;
76566;SDS011;65428;53.194;6.132;2023-03-05T09:17:33;5.50;;;0.40;;
76566;SDS011;65428;53.194;6.132;2023-03-05T09:20:00;4.05;;;0.50;;
76566;SDS011;65428;53.194;6.132;2023-03-05T09:22:27;5.05;;;0.40;;
76566;SDS011;65428;53.194;6.132;2023-03-05T09:24:53;5.13;;;0.40;;
76566;SDS011;65428;53.194;6.132;2023-03-05T09:27:19;6.53;;;0.47;;
76566;SDS011;65428;53.194;6.132;2023-03-05T09:29:45;4.70;;;0.40;;
76566;SDS011;65428;53.194;6.132;2023-03-05T09:32:11;3.03;;;0.20;;
76566;SDS011;65428;53.194;6.132;2023-03-05T09:34:36;5.15;;;0.40;;
76566;SDS011;65428;53.194;6.132;2023-03-05T09:37:02;4.70;;;0.20;;
76566;SDS011;65428;53.194;6.132;2023-03-05T09:39:28;3.63;;;0.30;;
76566;SDS011;65428;53.194;6.132;2023-03-05T09:49:53;4.40;;;0.20;;
76566;SDS011;65428;53.194;6.132;2023-03-05T09:55:03;5.50;;;0.20;;
76566;SDS011;65428;53.194;6.132;2023-03-05T09:57:38;7.82;;;0.50;;
76566;SDS011;65428;53.194;6.132;2023-03-05T10:00:20;4.88;;;0.30;;
76566;SDS011;65428;53.194;6.132;2023-03-05T10:03:15;4.75;;;0.43;;
76566;SDS011;65428;53.194;6.132;2023-03-05T10:14:22;5.78;;;0.43;;
76566;SDS011;65428;53.194;6.132;2023-03-05T10:22:20;7.30;;;0.63;;
76566;SDS011;65428;53.194;6.132;2023-03-05T10:24:57;7.93;;;0.80;;
76566;SDS011;65428;53.194;6.132;2023-03-05T10:27:48;5.95;;;0.45;;
76566;SDS011;65428;53.194;6.132;2023-03-05T10:30:43;6.45;;;0.47;;
76566;SDS011;65428;53.194;6.132;2023-03-05T10:46:35;5.50;;;0.30;;
76566;SDS011;65428;53.194;6.132;2023-03-05T10:49:30;4.47;;;0.32;;
76566;SDS011;65428;53.194;6.132;2023-03-05T10:52:12;4.82;;;0.30;;
76566;SDS011;65428;53.194;6.132;2023-03-05T10:54:41;3.40;;;0.20;;
76566;SDS011;65428;53.194;6.132;2023-03-05T10:59:48;4.05;;;0.30;;
76566;SDS011;65428;53.194;6.132;2023-03-05T11:02:16;4.50;;;0.30;;
76566;SDS011;65428;53.194;6.132;2023-03-05T11:04:43;4.72;;;0.50;;
76566;SDS011;65428;53.194;6.132;2023-03-05T11:09:40;3.63;;;0.30;;
76566;SDS011;65428;53.194;6.132;2023-03-05T11:15:00;3.63;;;0.30;;
76566;SDS011;65428;53.194;6.132;2023-03-05T11:18:02;2.85;;;0.20;;
76566;SDS011;65428;53.194;6.132;2023-03-05T11:20:34;2.85;;;0.20;;
76566;SDS011;65428;53.194;6.132;2023-03-05T11:23:04;3.30;;;0.20;;
76566;SDS011;65428;53.194;6.132;2023-03-05T11:25:35;3.17;;;0.30;;
76566;SDS011;65428;53.194;6.132;2023-03-05T11:28:17;2.97;;;0.20;;
76566;SDS011;65428;53.194;6.132;2023-03-05T11:30:53;2.88;;;0.20;;
76566;SDS011;65428;53.194;6.132;2023-03-05T11:33:31;3.33;;;0.30;;
76566;SDS011;65428;53.194;6.132;2023-03-05T11:36:46;3.42;;;0.30;;
76566;SDS011;65428;53.194;6.132;2023-03-05T11:39:08;2.75;;;0.20;;
76566;SDS011;65428;53.194;6.132;2023-03-05T11:41:44;3.03;;;0.30;;
76566;SDS011;65428;53.194;6.132;2023-03-05T11:46:46;3.63;;;0.20;;
76566;SDS011;65428;53.194;6.132;2023-03-05T11:49:15;2.50;;;0.20;;
76566;SDS011;65428;53.194;6.132;2023-03-05T11:51:51;2.65;;;0.20;;
76566;SDS011;65428;53.194;6.132;2023-03-05T11:54:29;2.90;;;0.20;;
76566;SDS011;65428;53.194;6.132;2023-03-05T11:57:03;3.20;;;0.30;;
76566;SDS011;65428;53.194;6.132;2023-03-05T11:59:33;2.70;;;0.20;;
76566;SDS011;65428;53.194;6.132;2023-03-05T12:02:08;3.10;;;0.28;;
76566;SDS011;65428;53.194;6.132;2023-03-05T12:04:42;3.95;;;0.20;;
76566;SDS011;65428;53.194;6.132;2023-03-05T12:07:08;4.13;;;0.30;;
76566;SDS011;65428;53.194;6.132;2023-03-05T12:09:49;4.43;;;0.23;;
76566;SDS011;65428;53.194;6.132;2023-03-05T12:17:38;3.58;;;0.20;;
76566;SDS011;65428;53.194;6.132;2023-03-05T12:20:14;3.63;;;0.20;;
76566;SDS011;65428;53.194;6.132;2023-03-05T12:22:44;3.75;;;0.30;;
76566;SDS011;65428;53.194;6.132;2023-03-05T12:28:15;3.95;;;0.30;;
76566;SDS011;65428;53.194;6.132;2023-03-05T12:30:54;3.25;;;0.20;;
76566;SDS011;65428;53.194;6.132;2023-03-05T12:33:29;3.25;;;0.20;;
76566;SDS011;65428;53.194;6.132;2023-03-05T12:38:47;2.78;;;0.30;;
76566;SDS011;65428;53.194;6.132;2023-03-05T12:46:29;3.40;;;0.20;;
76566;SDS011;65428;53.194;6.132;2023-03-05T12:48:57;4.13;;;0.22;;
76566;SDS011;65428;53.194;6.132;2023-03-05T12:51:27;5.18;;;0.32;;
76566;SDS011;65428;53.194;6.132;2023-03-05T12:54:09;3.43;;;0.20;;
76566;SDS011;65428;53.194;6.132;2023-03-05T12:56:57;3.05;;;0.30;;
76566;SDS011;65428;53.194;6.132;2023-03-05T13:02:55;6.90;;;0.40;;
76566;SDS011;65428;53.194;6.132;2023-03-05T13:05:13;3.28;;;0.30;;
76566;SDS011;65428;53.194;6.132;2023-03-05T13:07:47;3.47;;;0.40;;
76566;SDS011;65428;53.194;6.132;2023-03-05T13:10:32;3.00;;;0.30;;
76566;SDS011;65428;53.194;6.132;2023-03-05T13:12:58;4.03;;;0.40;;
76566;SDS011;65428;53.194;6.132;2023-03-05T13:15:24;4.60;;;0.20;;
76566;SDS011;65428;53.194;6.132;2023-03-05T13:17:52;3.63;;;0.30;;
76566;SDS011;65428;53.194;6.132;2023-03-05T13:20:26;3.83;;;0.30;;
76566;SDS011;65428;53.194;6.132;2023-03-05T13:23:04;4.03;;;0.30;;
76566;SDS011;65428;53.194;6.132;2023-03-05T13:26:01;3.47;;;0.30;;
76566;SDS011;65428;53.194;6.132;2023-03-05T13:28:28;3.53;;;0.28;;
76566;SDS011;65428;53.194;6.132;2023-03-05T13:31:01;4.65;;;0.30;;
76566;SDS011;65428;53.194;6.132;2023-03-05T13:33:36;3.43;;;0.30;;
76566;SDS011;65428;53.194;6.132;2023-03-05T13:36:02;2.43;;;0.20;;
76566;SDS011;65428;53.194;6.132;2023-03-05T13:38:33;2.33;;;0.20;;
76566;SDS011;65428;53.194;6.132;2023-03-05T13:43:32;2.88;;;0.38;;
76566;SDS011;65428;53.194;6.132;2023-03-05T13:45:58;3.33;;;0.20;;
76566;SDS011;65428;53.194;6.132;2023-03-05T13:48:25;2.88;;;0.20;;
76566;SDS011;65428;53.194;6.132;2023-03-05T13:50:56;3.95;;;0.28;;
76566;SDS011;65428;53.194;6.132;2023-03-05T13:53:29;3.95;;;0.20;;
76566;SDS011;65428;53.194;6.132;2023-03-05T13:55:59;3.05;;;0.20;;
76566;SDS011;65428;53.194;6.132;2023-03-05T14:01:28;4.33;;;0.30;;
76566;SDS011;65428;53.194;6.132;2023-03-05T14:04:34;2.63;;;0.20;;
76566;SDS011;65428;53.194;6.132;2023-03-05T14:06:58;2.80;;;0.20;;
76566;SDS011;65428;53.194;6.132;2023-03-05T14:09:41;4.30;;;0.40;;
76566;SDS011;65428;53.194;6.132;2023-03-05T14:14:51;5.20;;;0.40;;
76566;SDS011;65428;53.194;6.132;2023-03-05T14:22:54;3.65;;;0.20;;
76566;SDS011;65428;53.194;6.132;2023-03-05T14:27:58;2.35;;;0.20;;
76566;SDS011;65428;53.194;6.132;2023-03-05T14:30:25;3.45;;;0.20;;
76566;SDS011;65428;53.194;6.132;2023-03-05T14:32:52;2.75;;;0.20;;
76566;SDS011;65428;53.194;6.132;2023-03-05T14:35:20;2.40;;;0.13;;
76566;SDS011;65428;53.194;6.132;2023-03-05T14:37:48;3.37;;;0.20;;
76566;SDS011;65428;53.194;6.132;2023-03-05T14:40:26;2.40;;;0.20;;
76566;SDS011;65428;53.194;6.132;2023-03-05T14:42:54;2.63;;;0.30;;
76566;SDS011;65428;53.194;6.132;2023-03-05T14:45:22;3.55;;;0.20;;
76566;SDS011;65428;53.194;6.132;2023-03-05T14:47:56;4.68;;;0.30;;
76566;SDS011;65428;53.194;6.132;2023-03-05T14:50:25;3.72;;;0.20;;
76566;SDS011;65428;53.194;6.132;2023-03-05T14:53:14;2.77;;;0.20;;
76566;SDS011;65428;53.194;6.132;2023-03-05T14:55:43;4.70;;;0.22;;
76566;SDS011;65428;53.194;6.132;2023-03-05T14:58:18;3.15;;;0.20;;
76566;SDS011;65428;53.194;6.132;2023-03-05T15:00:46;4.22;;;0.28;;
76566;SDS011;65428;53.194;6.132;2023-03-05T15:03:17;4.20;;;0.20;;
76566;SDS011;65428;53.194;6.132;2023-03-05T15:05:45;3.47;;;0.20;;
76566;SDS011;65428;53.194;6.132;2023-03-05T15:08:13;5.13;;;0.20;;
76566;SDS011;65428;53.194;6.132;2023-03-05T15:10:45;4.40;;;0.30;;
76566;SDS011;65428;53.194;6.132;2023-03-05T15:13:12;3.75;;;0.22;;
76566;SDS011;65428;53.194;6.132;2023-03-05T15:15:39;5.00;;;0.40;;
76566;SDS011;65428;53.194;6.132;2023-03-05T15:18:06;3.53;;;0.30;;
76566;SDS011;65428;53.194;6.132;2023-03-05T15:20:34;4.32;;;0.40;;
76566;SDS011;65428;53.194;6.132;2023-03-05T15:23:00;3.95;;;0.30;;
76566;SDS011;65428;53.194;6.132;2023-03-05T15:25:25;5.13;;;0.40;;
76566;SDS011;65428;53.194;6.132;2023-03-05T15:27:53;3.00;;;0.30;;
76566;SDS011;65428;53.194;6.132;2023-03-05T15:30:27;5.55;;;0.38;;
76566;SDS011;65428;53.194;6.132;2023-03-05T15:32:54;3.47;;;0.37;;
76566;SDS011;65428;53.194;6.132;2023-03-05T15:35:22;2.78;;;0.40;;
76566;SDS011;65428;53.194;6.132;2023-03-05T15:37:48;4.45;;;0.30;;
76566;SDS011;65428;53.194;6.132;2023-03-05T15:40:14;3.47;;;0.20;;
76566;SDS011;65428;53.194;6.132;2023-03-05T15:42:40;5.22;;;0.38;;
76566;SDS011;65428;53.194;6.132;2023-03-05T15:45:06;3.88;;;0.30;;
76566;SDS011;65428;53.194;6.132;2023-03-05T15:47:31;5.03;;;0.30;;
76566;SDS011;65428;53.194;6.132;2023-03-05T15:49:57;4.70;;;0.43;;
76566;SDS011;65428;53.194;6.132;2023-03-05T15:52:23;3.43;;;0.20;;
76566;SDS011;65428;53.194;6.132;2023-03-05T15:54:48;3.05;;;0.10;;
76566;SDS011;65428;53.194;6.132;2023-03-05T15:57:14;3.47;;;0.30;;
76566;SDS011;65428;53.194;6.132;2023-03-05T15:59:40;4.90;;;0.40;;
76566;SDS011;65428;53.194;6.132;2023-03-05T16:02:06;5.00;;;0.30;;
76566;SDS011;65428;53.194;6.132;2023-03-05T16:04:31;4.83;;;0.53;;
76566;SDS011;65428;53.194;6.132;2023-03-05T16:06:58;5.80;;;0.70;;
76566;SDS011;65428;53.194;6.132;2023-03-05T16:09:29;4.40;;;0.30;;
76566;SDS011;65428;53.194;6.132;2023-03-05T16:11:58;2.80;;;0.20;;
76566;SDS011;65428;53.194;6.132;2023-03-05T16:14:26;3.72;;;0.20;;
76566;SDS011;65428;53.194;6.132;2023-03-05T16:16:53;3.40;;;0.30;;
76566;SDS011;65428;53.194;6.132;2023-03-05T16:19:20;5.20;;;0.28;;
76566;SDS011;65428;53.194;6.132;2023-03-05T16:21:48;3.25;;;0.30;;
76566;SDS011;65428;53.194;6.132;2023-03-05T16:24:14;6.40;;;0.40;;